This is the latest recevied weather packets stored in our database for station/object AA0RD-13. If no packets are shown the sender has not sent any weather packets the latest 10 day(s).
| Time | Temp. | Humidity | Pressure | Rain* | Wind** | Luminosity | Snow |
|---|---|---|---|---|---|---|---|
| 1777913595 | 14.44° C | 82% | 1010.8 hPa | 0 mm | - | - | - |
| 1777912399 | 13.33° C | 82% | 1010.8 hPa | 0 mm | - | - | - |
| 1777908813 | 12.78° C | 80% | 1010.4 hPa | 0 mm | - | - | - |
| 1777908505 | 13.33° C | 78% | 1010.3 hPa | 0 mm | - | - | - |
| 1777908197 | 13.89° C | 75% | 1010.2 hPa | 0 mm | - | - | - |
| 1777907913 | 15° C | 71% | 1010.3 hPa | 0 mm | - | - | - |
| 1777907624 | 16.11° C | 67% | 1010.2 hPa | 0 mm | - | - | - |
| 1777906717 | 16.67° C | 66% | 1010.2 hPa | 0 mm | - | - | - |
| 1777906097 | 15.56° C | 73% | 1010 hPa | 0 mm | - | - | - |
| 1777905212 | 15° C | 75% | 1010.1 hPa | 0 mm | - | - | - |
| 1777904599 | 13.33° C | 78% | 1010 hPa | 0 mm | - | - | - |
| 1777902497 | 13.33° C | 79% | 1009.6 hPa | 0 mm | - | - | - |
| 1777901904 | 13.33° C | 79% | 1009.6 hPa | 0 mm | - | - | - |
| 1777899500 | 12.22° C | 83% | 1009.4 hPa | 0 mm | - | - | - |
| 1777898923 | 12.22° C | 83% | 1009.5 hPa | 0 mm | - | - | - |
| 1777898304 | 12.22° C | 83% | 1009.5 hPa | 0 mm | - | - | - |
| 1777897707 | 12.22° C | 85% | 1009.6 hPa | 0 mm | - | - | - |
| 1777895319 | 12.22° C | 83% | 1009.4 hPa | 0 mm | - | - | - |
| 1777895011 | 12.78° C | 83% | 1009.4 hPa | 0 mm | - | - | - |
| 1777894722 | 12.22° C | 85% | 1009.4 hPa | 0 mm | - | - | - |
| 1777894413 | 12.22° C | 87% | 1009.6 hPa | 0 mm | - | - | - |
| 1777893817 | 11.67° C | 89% | 1009.6 hPa | 0 mm | - | - | - |
| 1777892299 | 11.11° C | 93% | 1009.5 hPa | 0 mm | - | - | - |
| 1777891123 | 11.11° C | 92% | 1009.5 hPa | 0 mm | - | - | - |
| 1777890508 | 11.11° C | 92% | 1009.5 hPa | 0 mm | - | - | - |
* Rain latest hour (hover to see other rain measurements)
** Current wind speed in m/s (hover to see current wind gust speed)